createdAt,value
2022-07-25T00:00:09.555Z,4.18
2022-07-25T00:02:36.425Z,4.35
2022-07-25T00:05:04.714Z,4.60
2022-07-25T00:07:31.435Z,4.50
2022-07-25T00:09:58.197Z,4.38
2022-07-25T00:12:25.012Z,4.20
2022-07-25T00:14:51.721Z,4.53
2022-07-25T00:17:18.451Z,4.25
2022-07-25T00:19:45.150Z,4.72
2022-07-25T00:22:11.823Z,4.70
2022-07-25T00:24:38.628Z,4.57
2022-07-25T00:27:05.379Z,4.32
2022-07-25T00:29:32.044Z,4.85
2022-07-25T00:31:58.760Z,4.25
2022-07-25T00:34:25.428Z,4.53
2022-07-25T00:36:52.123Z,5.13
2022-07-25T00:39:18.839Z,5.00
2022-07-25T00:41:45.530Z,4.40
2022-07-25T00:44:31.997Z,4.25
2022-07-25T00:46:59.340Z,5.03
2022-07-25T00:49:26.616Z,4.90
2022-07-25T00:51:54.433Z,4.43
2022-07-25T00:54:22.011Z,4.50
2022-07-25T00:56:49.424Z,4.80
2022-07-25T00:59:17.150Z,4.25
2022-07-25T01:01:47.798Z,4.40
2022-07-25T01:04:15.720Z,4.50
2022-07-25T01:06:42.780Z,5.10
2022-07-25T01:09:09.790Z,4.97
2022-07-25T01:11:37.003Z,4.80
2022-07-25T01:14:04.804Z,4.57
2022-07-25T01:16:31.827Z,4.40
2022-07-25T01:18:58.670Z,4.65
2022-07-25T01:21:26.286Z,4.25
2022-07-25T01:23:53.161Z,4.90
2022-07-25T01:26:19.968Z,4.72
2022-07-25T01:28:46.668Z,4.80
2022-07-25T01:31:13.470Z,4.53
2022-07-25T01:33:40.170Z,4.93
2022-07-25T01:36:07.060Z,5.00
2022-07-25T01:38:33.898Z,5.47
2022-07-25T01:41:00.557Z,5.45
2022-07-25T01:43:27.270Z,4.30
2022-07-25T01:45:54.053Z,4.70
2022-07-25T01:48:20.841Z,4.95
2022-07-25T01:50:47.518Z,5.07
2022-07-25T01:53:15.678Z,4.80
2022-07-25T01:55:44.401Z,4.60
2022-07-25T01:58:11.386Z,4.53
2022-07-25T02:00:38.529Z,4.88
2022-07-25T02:03:23.863Z,4.15
2022-07-25T02:05:50.610Z,4.75
2022-07-25T02:08:17.289Z,4.55
2022-07-25T02:10:44.293Z,4.82
2022-07-25T02:13:10.951Z,4.55
2022-07-25T02:15:38.402Z,4.05
2022-07-25T02:18:05.652Z,5.03
2022-07-25T02:20:32.363Z,4.93
2022-07-25T02:22:59.477Z,4.43
2022-07-25T02:25:26.222Z,4.03
2022-07-25T02:27:52.859Z,4.80
2022-07-25T02:30:19.526Z,4.50
2022-07-25T02:32:46.181Z,4.43
2022-07-25T02:35:13.502Z,5.00
2022-07-25T02:37:40.901Z,4.30
2022-07-25T02:40:08.588Z,4.35
2022-07-25T02:42:35.371Z,4.18
2022-07-25T02:45:02.372Z,5.00
2022-07-25T02:47:29.550Z,4.43
2022-07-25T02:49:56.272Z,4.38
2022-07-25T02:52:22.950Z,3.97
2022-07-25T02:54:50.722Z,4.53
2022-07-25T02:57:17.505Z,4.18
2022-07-25T02:59:44.182Z,4.13
2022-07-25T03:02:10.872Z,3.75
2022-07-25T03:04:37.699Z,4.50
2022-07-25T03:07:04.449Z,4.88
2022-07-25T03:09:31.206Z,3.90
2022-07-25T03:11:57.909Z,3.90
2022-07-25T03:14:24.631Z,4.40
2022-07-25T03:16:51.365Z,3.97
2022-07-25T03:19:18.414Z,3.90
2022-07-25T03:21:46.128Z,4.68
2022-07-25T03:24:12.830Z,4.22
2022-07-25T03:26:39.561Z,4.05
2022-07-25T03:29:06.362Z,4.13
2022-07-25T03:31:33.112Z,4.07
2022-07-25T03:33:59.884Z,4.32
2022-07-25T03:36:26.689Z,4.00
2022-07-25T03:38:53.375Z,4.18
2022-07-25T03:41:20.084Z,3.72
2022-07-25T03:43:46.766Z,3.78
2022-07-25T03:46:13.618Z,4.00
2022-07-25T03:48:40.502Z,4.22
2022-07-25T03:51:07.520Z,3.80
2022-07-25T03:53:54.654Z,4.05
2022-07-25T03:56:21.418Z,3.70
2022-07-25T03:58:48.163Z,3.58
2022-07-25T04:01:14.996Z,4.03
2022-07-25T04:03:41.800Z,3.80
2022-07-25T04:06:11.047Z,4.32
2022-07-25T04:08:37.789Z,3.22
2022-07-25T04:11:04.676Z,4.18
2022-07-25T04:13:31.602Z,3.38
2022-07-25T04:15:58.336Z,3.97
2022-07-25T04:18:28.511Z,3.88
2022-07-25T04:20:55.647Z,3.88
2022-07-25T04:23:22.379Z,3.78
2022-07-25T04:25:49.137Z,3.60
2022-07-25T04:28:15.865Z,4.13
2022-07-25T04:30:45.361Z,3.40
2022-07-25T04:33:13.521Z,3.67
2022-07-25T04:35:40.339Z,3.75
2022-07-25T04:38:11.899Z,3.88
2022-07-25T04:40:39.899Z,3.92
2022-07-25T04:43:08.444Z,3.70
2022-07-25T04:45:35.422Z,3.38
2022-07-25T04:48:02.641Z,3.72
2022-07-25T04:50:29.988Z,3.88
2022-07-25T04:52:56.732Z,3.67
2022-07-25T04:55:23.553Z,4.22
2022-07-25T04:57:50.381Z,3.58
2022-07-25T05:00:17.417Z,3.25
2022-07-25T05:02:44.654Z,3.42
2022-07-25T05:05:20.878Z,2.85
2022-07-25T05:07:48.734Z,3.30
2022-07-25T05:10:15.523Z,3.15
2022-07-25T05:12:42.332Z,3.08
2022-07-25T05:15:09.750Z,3.03
2022-07-25T05:17:36.494Z,3.03
2022-07-25T05:20:03.689Z,3.40
2022-07-25T05:22:30.836Z,2.83
2022-07-25T05:24:57.627Z,2.67
2022-07-25T05:27:24.344Z,3.45
2022-07-25T05:29:51.045Z,3.97
2022-07-25T05:32:17.976Z,2.85
2022-07-25T05:34:44.906Z,2.58
2022-07-25T05:37:11.667Z,2.88
2022-07-25T05:39:40.250Z,2.40
2022-07-25T05:42:07.565Z,2.80
2022-07-25T05:44:34.246Z,2.88
2022-07-25T05:47:01.056Z,2.85
2022-07-25T05:49:28.013Z,2.80
2022-07-25T05:51:54.761Z,2.92
2022-07-25T05:54:21.458Z,2.70
2022-07-25T05:56:48.176Z,3.08
2022-07-25T05:59:14.892Z,2.70
2022-07-25T06:01:41.666Z,3.10
2022-07-25T06:04:08.781Z,2.92
2022-07-25T06:06:35.854Z,2.58
2022-07-25T06:09:02.580Z,2.45
2022-07-25T06:11:34.667Z,2.58
2022-07-25T06:14:01.415Z,2.60
2022-07-25T06:16:28.693Z,2.60
2022-07-25T06:18:55.500Z,2.30
2022-07-25T06:21:22.229Z,2.22
2022-07-25T06:23:48.880Z,2.33
2022-07-25T06:26:15.595Z,2.60
2022-07-25T06:28:42.383Z,2.40
2022-07-25T06:31:09.251Z,2.42
2022-07-25T06:33:36.105Z,2.83
2022-07-25T06:36:04.086Z,2.20
2022-07-25T06:38:30.847Z,2.33
2022-07-25T06:40:57.569Z,2.47
2022-07-25T06:43:24.312Z,2.70
2022-07-25T06:45:51.263Z,2.53
2022-07-25T06:48:18.773Z,3.00
2022-07-25T06:50:45.555Z,2.45
2022-07-25T06:53:12.537Z,2.58
2022-07-25T06:55:39.469Z,3.28
2022-07-25T06:58:06.157Z,2.65
2022-07-25T07:00:32.942Z,2.50
2022-07-25T07:03:02.281Z,2.70
2022-07-25T07:05:33.993Z,3.20
2022-07-25T07:08:01.483Z,2.58
2022-07-25T07:10:28.600Z,3.05
2022-07-25T07:13:11.045Z,2.78
2022-07-25T07:15:43.619Z,2.72
2022-07-25T07:20:37.112Z,3.10
2022-07-25T07:23:03.842Z,3.53
2022-07-25T07:25:30.945Z,3.08
2022-07-25T07:27:57.773Z,3.05
2022-07-25T07:30:37.649Z,2.75
2022-07-25T07:33:11.281Z,3.05
2022-07-25T07:35:38.045Z,2.80
2022-07-25T07:38:04.765Z,3.22
2022-07-25T07:40:32.315Z,3.00
2022-07-25T07:43:02.265Z,2.88
2022-07-25T07:45:29.424Z,3.22
2022-07-25T07:47:56.703Z,2.75
2022-07-25T07:50:25.590Z,2.97
2022-07-25T07:52:53.608Z,3.30
2022-07-25T07:55:39.619Z,2.58
2022-07-25T07:58:07.254Z,2.40
2022-07-25T08:00:39.288Z,3.45
2022-07-25T08:03:09.931Z,2.90
2022-07-25T08:08:07.480Z,3.22
2022-07-25T08:10:37.412Z,2.95
2022-07-25T08:13:23.092Z,2.60
2022-07-25T08:15:58.036Z,3.30
2022-07-25T08:18:26.376Z,3.20
2022-07-25T08:20:54.516Z,3.28
2022-07-25T08:23:22.453Z,4.13
2022-07-25T08:25:49.489Z,3.15
2022-07-25T08:28:16.341Z,3.30
2022-07-25T08:30:43.198Z,3.65
2022-07-25T08:33:13.282Z,2.95
2022-07-25T08:35:41.722Z,2.80
2022-07-25T08:38:11.365Z,3.20
2022-07-25T08:40:38.296Z,3.30
2022-07-25T08:43:05.195Z,2.95
2022-07-25T08:45:33.538Z,2.90
2022-07-25T08:48:00.323Z,3.13
2022-07-25T08:50:29.330Z,2.97
2022-07-25T08:53:29.907Z,2.80
2022-07-25T08:55:46.731Z,3.03
2022-07-25T08:58:16.048Z,3.13
2022-07-25T09:00:43.876Z,2.75
2022-07-25T09:03:11.239Z,2.92
2022-07-25T09:05:38.637Z,3.08
2022-07-25T09:08:17.687Z,3.30
2022-07-25T09:10:52.401Z,3.05
2022-07-25T09:13:21.258Z,3.10
2022-07-25T09:15:51.824Z,3.35
2022-07-25T09:21:01.517Z,2.97
2022-07-25T09:23:28.329Z,3.40
2022-07-25T09:26:10.042Z,3.58
2022-07-25T09:28:56.048Z,2.90
2022-07-25T09:31:32.637Z,3.08
2022-07-25T09:34:01.546Z,3.15
2022-07-25T09:36:28.273Z,3.42
2022-07-25T09:39:02.603Z,2.97
2022-07-25T09:41:41.685Z,3.00
2022-07-25T09:44:29.704Z,3.65
2022-07-25T09:46:58.966Z,3.00
2022-07-25T09:49:26.747Z,3.40
2022-07-25T09:51:54.573Z,3.00
2022-07-25T09:54:21.693Z,3.10
2022-07-25T09:56:48.416Z,3.30
2022-07-25T09:59:15.119Z,3.70
2022-07-25T10:01:51.340Z,3.25
2022-07-25T10:04:25.453Z,3.28
2022-07-25T10:07:07.963Z,3.38
2022-07-25T10:09:40.926Z,3.15
2022-07-25T10:12:09.767Z,3.25
2022-07-25T10:14:37.570Z,3.05
2022-07-25T10:17:05.288Z,3.00
2022-07-25T10:19:49.363Z,3.17
2022-07-25T10:22:25.899Z,3.63
2022-07-25T10:25:13.321Z,3.40
2022-07-25T10:27:48.529Z,3.08
2022-07-25T10:30:26.672Z,3.65
2022-07-25T10:33:10.551Z,3.70
2022-07-25T10:35:37.713Z,3.47
2022-07-25T10:38:05.780Z,3.05
2022-07-25T10:40:33.499Z,3.38
2022-07-25T10:43:09.757Z,3.17
2022-07-25T10:45:57.918Z,3.13
2022-07-25T10:48:28.734Z,3.05
2022-07-25T10:51:04.589Z,3.17
2022-07-25T10:53:43.804Z,3.63
2022-07-25T10:56:17.637Z,3.28
2022-07-25T10:58:57.281Z,3.15
2022-07-25T11:01:32.376Z,3.80
2022-07-25T11:04:01.897Z,3.53
2022-07-25T11:06:36.997Z,3.00
2022-07-25T11:09:17.979Z,3.00
2022-07-25T11:11:48.289Z,3.60
2022-07-25T11:14:20.398Z,3.50
2022-07-25T11:16:50.520Z,3.28
2022-07-25T11:19:17.606Z,3.58
2022-07-25T11:21:49.315Z,4.07
2022-07-25T11:24:16.211Z,3.58
2022-07-25T11:26:51.404Z,3.17
2022-07-25T11:29:19.570Z,3.22
2022-07-25T11:32:02.974Z,2.97
2022-07-25T11:34:36.238Z,3.17
2022-07-25T11:37:06.713Z,2.90
2022-07-25T11:39:36.486Z,2.85
2022-07-25T11:42:05.226Z,3.17
2022-07-25T11:44:47.636Z,3.28
2022-07-25T11:47:33.232Z,3.05
2022-07-25T11:50:02.495Z,3.05
2022-07-25T11:52:37.064Z,3.38
2022-07-25T11:55:10.444Z,2.92
2022-07-25T11:57:44.278Z,3.13
2022-07-25T12:00:19.950Z,3.15
2022-07-25T12:02:48.348Z,3.30
2022-07-25T12:05:17.703Z,3.58
2022-07-25T12:07:45.776Z,3.33
2022-07-25T12:10:18.356Z,3.15
2022-07-25T12:12:50.895Z,3.17
2022-07-25T12:15:20.853Z,3.33
2022-07-25T12:17:48.573Z,3.05
2022-07-25T12:20:38.152Z,2.83
2022-07-25T12:23:07.197Z,3.40
2022-07-25T12:25:35.693Z,3.67
2022-07-25T12:28:02.370Z,3.53
2022-07-25T12:30:30.379Z,3.28
2022-07-25T12:32:58.329Z,3.50
2022-07-25T12:35:25.658Z,3.60
2022-07-25T12:37:53.352Z,3.30
2022-07-25T12:40:20.655Z,3.50
2022-07-25T12:42:48.677Z,3.33
2022-07-25T12:45:17.175Z,3.05
2022-07-25T12:47:45.593Z,3.22
2022-07-25T12:50:13.593Z,3.15
2022-07-25T12:52:41.632Z,2.80
2022-07-25T12:55:10.530Z,3.50
2022-07-25T12:57:37.576Z,3.15
2022-07-25T13:00:07.310Z,3.33
2022-07-25T13:02:34.465Z,3.17
2022-07-25T13:05:01.305Z,3.30
2022-07-25T13:07:28.147Z,2.97
2022-07-25T13:09:54.873Z,3.20
2022-07-25T13:12:23.540Z,3.15
2022-07-25T13:14:51.103Z,3.00
2022-07-25T13:17:17.988Z,3.33
2022-07-25T13:19:44.757Z,2.88
2022-07-25T13:22:11.561Z,3.10
2022-07-25T13:24:39.254Z,3.53
2022-07-25T13:27:06.757Z,2.90
2022-07-25T13:29:34.110Z,3.25
2022-07-25T13:32:02.109Z,3.03
2022-07-25T13:34:28.923Z,2.92
2022-07-25T13:36:55.607Z,2.85
2022-07-25T13:39:22.530Z,3.40
2022-07-25T13:41:49.920Z,3.17
2022-07-25T13:44:16.645Z,2.75
2022-07-25T13:46:46.242Z,3.75
2022-07-25T13:49:13.364Z,3.17
2022-07-25T13:51:40.087Z,3.28
2022-07-25T13:54:07.063Z,3.60
2022-07-25T13:56:33.865Z,3.70
2022-07-25T13:59:01.948Z,3.50
2022-07-25T14:01:28.781Z,3.22
2022-07-25T14:03:55.787Z,3.65
2022-07-25T14:06:22.611Z,3.83
2022-07-25T14:08:49.337Z,3.47
2022-07-25T14:11:16.146Z,4.07
2022-07-25T14:13:44.287Z,3.65
2022-07-25T14:16:14.415Z,3.88
2022-07-25T14:18:41.110Z,3.20
2022-07-25T14:21:07.811Z,3.85
2022-07-25T14:23:34.486Z,3.65
2022-07-25T14:26:01.221Z,3.83
2022-07-25T14:28:27.927Z,5.00
2022-07-25T14:30:54.710Z,4.28
2022-07-25T14:33:21.394Z,4.47
2022-07-25T14:35:48.132Z,4.15
2022-07-25T14:38:15.347Z,3.53
2022-07-25T14:40:42.689Z,4.40
2022-07-25T14:43:09.387Z,4.45
2022-07-25T14:45:37.038Z,3.92
2022-07-25T14:48:06.280Z,3.90
2022-07-25T14:50:33.021Z,3.85
2022-07-25T14:52:59.732Z,3.70
2022-07-25T14:55:26.913Z,3.47
2022-07-25T14:57:53.766Z,3.20
2022-07-25T15:00:22.073Z,2.97
2022-07-25T15:02:51.685Z,2.70
2022-07-25T15:05:18.464Z,2.83
2022-07-25T15:07:45.285Z,2.67
2022-07-25T15:10:12.288Z,3.10
2022-07-25T15:12:38.970Z,2.60
2022-07-25T15:15:06.538Z,2.67
2022-07-25T15:17:33.828Z,2.90
2022-07-25T15:20:06.625Z,2.20
2022-07-25T15:22:33.344Z,1.98
2022-07-25T15:25:39.187Z,2.78
2022-07-25T15:27:46.765Z,2.47
2022-07-25T15:30:13.649Z,2.20
2022-07-25T15:32:40.663Z,2.67
2022-07-25T15:35:09.366Z,2.30
2022-07-25T15:37:36.146Z,2.17
2022-07-25T15:40:03.797Z,2.40
2022-07-25T15:42:32.053Z,2.22
2022-07-25T15:45:30.952Z,1.83
2022-07-25T15:47:50.697Z,2.00
2022-07-25T15:50:18.750Z,2.10
2022-07-25T15:52:45.862Z,1.70
2022-07-25T15:55:13.051Z,1.67
2022-07-25T15:57:39.785Z,1.85
2022-07-25T16:00:08.352Z,1.27
2022-07-25T16:02:35.502Z,1.63
2022-07-25T16:05:03.132Z,1.60
2022-07-25T16:07:29.957Z,1.52
2022-07-25T16:09:57.144Z,1.15
2022-07-25T16:12:28.456Z,1.25
2022-07-25T16:14:55.578Z,1.30
2022-07-25T16:17:22.631Z,1.10
2022-07-25T16:19:49.400Z,1.08
2022-07-25T16:22:16.141Z,1.20
2022-07-25T16:24:42.943Z,1.30
2022-07-25T16:27:09.982Z,1.10
2022-07-25T16:29:37.476Z,1.35
2022-07-25T16:32:05.400Z,1.30
2022-07-25T16:34:32.781Z,1.20
2022-07-25T16:37:00.143Z,0.70
2022-07-25T16:39:26.938Z,0.80
2022-07-25T16:41:53.964Z,1.30
2022-07-25T16:44:20.829Z,1.13
2022-07-25T16:46:47.563Z,0.98
2022-07-25T16:49:15.406Z,1.10
2022-07-25T16:51:43.504Z,1.20
2022-07-25T16:54:10.576Z,1.35
2022-07-25T16:56:37.925Z,1.50
2022-07-25T16:59:06.215Z,1.30
2022-07-25T17:01:34.903Z,1.20
2022-07-25T17:04:01.845Z,1.45
2022-07-25T17:06:29.247Z,1.23
2022-07-25T17:08:56.094Z,1.35
2022-07-25T17:11:22.805Z,1.40
2022-07-25T17:13:49.534Z,1.90
2022-07-25T17:16:16.423Z,1.60
2022-07-25T17:18:43.194Z,1.38
2022-07-25T17:21:10.580Z,1.48
2022-07-25T17:23:37.309Z,1.10
2022-07-25T17:26:05.575Z,1.92
2022-07-25T17:28:34.994Z,1.63
2022-07-25T17:31:04.256Z,1.80
2022-07-25T17:33:33.927Z,1.60
2022-07-25T17:36:04.050Z,1.45
2022-07-25T17:38:36.401Z,1.83
2022-07-25T17:41:05.213Z,1.55
2022-07-25T17:43:33.186Z,1.38
2022-07-25T17:46:02.967Z,2.15
2022-07-25T17:48:30.927Z,2.28
2022-07-25T17:51:03.942Z,1.98
2022-07-25T17:53:35.902Z,1.67
2022-07-25T17:56:09.094Z,1.58
2022-07-25T17:58:42.299Z,1.58
2022-07-25T18:01:12.993Z,1.55
2022-07-25T18:03:40.023Z,1.40
2022-07-25T18:06:06.819Z,1.30
2022-07-25T18:08:35.229Z,1.30
2022-07-25T18:11:03.529Z,1.52
2022-07-25T18:13:30.285Z,1.35
2022-07-25T18:15:57.183Z,1.48
2022-07-25T18:18:23.882Z,1.33
2022-07-25T18:20:50.563Z,1.65
2022-07-25T18:23:17.321Z,1.58
2022-07-25T18:25:47.253Z,1.67
2022-07-25T18:28:14.101Z,2.05
2022-07-25T18:30:40.917Z,1.50
2022-07-25T18:33:07.699Z,2.10
2022-07-25T18:35:34.673Z,2.00
2022-07-25T18:38:01.878Z,2.17
2022-07-25T18:40:28.873Z,1.60
2022-07-25T18:42:55.741Z,1.75
2022-07-25T18:45:23.581Z,1.80
2022-07-25T18:47:50.862Z,1.73
2022-07-25T18:50:20.172Z,1.77
2022-07-25T18:52:46.904Z,2.03
2022-07-25T18:55:13.852Z,1.85
2022-07-25T18:57:40.571Z,1.92
2022-07-25T19:00:09.309Z,1.73
2022-07-25T19:02:36.229Z,1.98
2022-07-25T19:05:03.098Z,1.73
2022-07-25T19:07:31.240Z,2.22
2022-07-25T19:09:58.114Z,1.92
2022-07-25T19:12:26.559Z,2.10
2022-07-25T19:14:54.027Z,2.17
2022-07-25T19:17:21.033Z,2.03
2022-07-25T19:19:47.784Z,1.90
2022-07-25T19:22:14.585Z,1.70
2022-07-25T19:24:41.323Z,2.35
2022-07-25T19:27:09.507Z,2.00
2022-07-25T19:29:37.489Z,2.03
2022-07-25T19:32:04.772Z,1.95
2022-07-25T19:34:31.505Z,2.40
2022-07-25T19:36:58.277Z,2.15
2022-07-25T19:39:24.996Z,1.92
2022-07-25T19:41:52.698Z,1.88
2022-07-25T19:44:19.801Z,1.73
2022-07-25T19:46:48.634Z,2.15
2022-07-25T19:49:15.681Z,1.60
2022-07-25T19:51:42.452Z,1.70
2022-07-25T19:54:09.760Z,1.70
2022-07-25T19:56:37.091Z,1.67
2022-07-25T19:59:04.060Z,2.00
2022-07-25T20:01:34.135Z,2.20
2022-07-25T20:04:02.295Z,1.85
2022-07-25T20:06:29.053Z,1.70
2022-07-25T20:08:56.993Z,1.98
2022-07-25T20:11:23.879Z,1.80
2022-07-25T20:13:50.620Z,1.98
2022-07-25T20:16:17.448Z,1.83
2022-07-25T20:18:44.402Z,1.75
2022-07-25T20:21:11.538Z,2.08
2022-07-25T20:23:38.526Z,2.00
2022-07-25T20:26:05.687Z,1.60
2022-07-25T20:28:32.394Z,1.80
2022-07-25T20:30:59.278Z,1.55
2022-07-25T20:33:27.152Z,1.60
2022-07-25T20:35:57.974Z,1.60
2022-07-25T20:38:28.191Z,1.70
2022-07-25T20:40:55.574Z,1.42
2022-07-25T20:43:22.554Z,1.45
2022-07-25T20:45:49.338Z,1.70
2022-07-25T20:48:16.196Z,1.77
2022-07-25T20:50:44.007Z,1.42
2022-07-25T20:53:10.873Z,1.45
2022-07-25T20:55:38.162Z,1.65
2022-07-25T20:58:05.206Z,1.67
2022-07-25T21:00:32.409Z,1.35
2022-07-25T21:02:59.730Z,0.93
2022-07-25T21:05:27.292Z,0.90
2022-07-25T21:07:54.202Z,0.80
2022-07-25T21:10:21.046Z,1.25
2022-07-25T21:12:47.899Z,0.60
2022-07-25T21:15:15.535Z,0.70
2022-07-25T21:17:42.302Z,0.90
2022-07-25T21:20:13.612Z,0.75
2022-07-25T21:22:41.647Z,0.80
2022-07-25T21:25:09.517Z,0.75
2022-07-25T21:27:36.717Z,0.60
2022-07-25T21:30:05.683Z,0.60
2022-07-25T21:32:32.481Z,0.77
2022-07-25T21:34:59.429Z,0.77
2022-07-25T21:37:26.361Z,0.70
2022-07-25T21:39:53.089Z,0.70
2022-07-25T21:42:19.904Z,0.93
2022-07-25T21:44:46.585Z,0.77
2022-07-25T21:47:13.268Z,1.08
2022-07-25T21:49:58.883Z,0.57
2022-07-25T21:52:30.155Z,0.82
2022-07-25T21:55:03.353Z,0.80
2022-07-25T21:57:30.581Z,0.70
2022-07-25T21:59:57.276Z,0.60
2022-07-25T22:02:24.044Z,0.77
2022-07-25T22:04:50.809Z,0.77
2022-07-25T22:07:17.978Z,0.85
2022-07-25T22:09:44.911Z,1.08
2022-07-25T22:12:11.638Z,0.68
2022-07-25T22:14:38.337Z,1.00
2022-07-25T22:17:05.731Z,0.98
2022-07-25T22:19:32.821Z,0.60
2022-07-25T22:21:59.681Z,0.60
2022-07-25T22:24:26.425Z,0.75
2022-07-25T22:26:53.412Z,0.70
2022-07-25T22:29:20.215Z,1.05
2022-07-25T22:31:46.988Z,0.80
2022-07-25T22:34:13.752Z,0.80
2022-07-25T22:36:40.530Z,0.73
2022-07-25T22:39:07.441Z,0.77
2022-07-25T22:41:34.734Z,0.88
2022-07-25T22:44:01.461Z,1.30
2022-07-25T22:46:29.250Z,1.00
2022-07-25T22:48:56.941Z,1.35
2022-07-25T22:51:24.022Z,0.80
2022-07-25T22:53:50.928Z,0.63
2022-07-25T22:56:17.703Z,0.90
2022-07-25T22:58:45.699Z,0.60
2022-07-25T23:01:15.677Z,0.80
2022-07-25T23:03:42.379Z,0.60
2022-07-25T23:06:09.343Z,0.88
2022-07-25T23:08:36.035Z,0.65
2022-07-25T23:11:03.508Z,1.00
2022-07-25T23:13:30.282Z,0.70
2022-07-25T23:15:57.039Z,0.73
2022-07-25T23:18:23.919Z,0.57
2022-07-25T23:20:50.580Z,0.45
2022-07-25T23:23:17.422Z,0.80
2022-07-25T23:25:44.204Z,0.90
2022-07-25T23:28:10.877Z,0.95
2022-07-25T23:30:40.465Z,0.63
2022-07-25T23:33:07.929Z,0.55
2022-07-25T23:35:35.145Z,0.70
2022-07-25T23:38:02.252Z,0.90
2022-07-25T23:40:29.294Z,0.70
2022-07-25T23:42:56.088Z,0.60
2022-07-25T23:45:24.987Z,0.50
2022-07-25T23:50:22.621Z,0.55
2022-07-25T23:52:49.461Z,0.50
2022-07-25T23:55:16.192Z,0.70
2022-07-25T23:57:43.203Z,0.88
